Time;durP1;ratioP1;P1;durP2;ratioP2;P2;SDS_P1;SDS_P2;PMS_P1;PMS_P2;Temp;Humidity;BMP_temperature;BMP_pressure;BME280_temperature;BME280_humidity;BME280_pressure;Samples;Min_cycle;Max_cycle;Signal;HPM_P1;HPM_P2
2023/04/01 00:01:00;;;;;;;2.30;2.20;;;9.20;99.90;;;;;;5092102;28;20177;-78
2023/04/01 00:03:26;;;;;;;2.43;2.30;;;9.20;99.90;;;;;;5096078;28;20483;-78
2023/04/01 00:05:53;;;;;;;2.33;2.23;;;9.10;99.90;;;;;;5078014;28;20210;-79
2023/04/01 00:08:20;;;;;;;2.27;2.17;;;9.10;99.90;;;;;;5096268;28;20167;-78
2023/04/01 00:10:45;;;;;;;2.43;2.33;;;9.00;99.90;;;;;;5096240;28;20239;-77
2023/04/01 00:13:11;;;;;;;2.40;2.30;;;9.10;99.90;;;;;;5096145;28;20175;-78
2023/04/01 00:15:37;;;;;;;2.37;2.27;;;9.10;99.90;;;;;;5096165;28;20185;-78
2023/04/01 00:18:04;;;;;;;2.50;2.40;;;9.10;99.90;;;;;;5096138;28;20197;-77
2023/04/01 00:20:30;;;;;;;2.20;2.10;;;9.10;99.90;;;;;;5095927;28;20605;-77
2023/04/01 00:22:56;;;;;;;2.67;2.47;;;9.00;99.90;;;;;;5077804;28;20260;-78
2023/04/01 00:25:22;;;;;;;2.67;2.47;;;9.10;99.90;;;;;;5095745;28;20205;-78
2023/04/01 00:27:49;;;;;;;2.30;2.20;;;9.10;99.90;;;;;;5077494;28;20188;-79
2023/04/01 00:30:15;;;;;;;2.70;2.60;;;9.10;99.90;;;;;;5095625;28;20177;-79
2023/04/01 00:32:41;;;;;;;2.20;2.10;;;9.10;99.90;;;;;;5095609;28;20179;-77
2023/04/01 00:35:07;;;;;;;2.60;2.40;;;9.10;99.90;;;;;;5077428;28;20637;-79
2023/04/01 00:37:36;;;;;;;2.50;2.30;;;9.00;99.90;;;;;;5095597;28;20227;-77
2023/04/01 00:40:05;;;;;;;2.30;2.20;;;9.00;99.90;;;;;;5095558;28;20668;-78
2023/04/01 00:42:31;;;;;;;2.37;2.27;;;9.00;99.90;;;;;;5095597;28;20213;-76
2023/04/01 00:44:57;;;;;;;2.73;2.53;;;9.00;99.90;;;;;;5095396;28;20690;-78
2023/04/01 00:47:25;;;;;;;2.47;2.37;;;9.10;99.90;;;;;;5095497;28;20256;-77
2023/04/01 00:49:55;;;;;;;2.60;2.50;;;9.10;99.90;;;;;;5094902;28;20864;-77
2023/04/01 00:52:25;;;;;;;2.63;2.43;;;9.10;99.90;;;;;;5094808;28;20185;-78
2023/04/01 00:54:58;;;;;;;2.80;2.60;;;9.00;99.90;;;;;;5095437;28;20529;-79
2023/04/01 00:57:32;;;;;;;2.70;2.60;;;9.00;99.90;;;;;;5095539;28;20645;-78
2023/04/01 00:59:59;;;;;;;2.60;2.40;;;8.90;99.90;;;;;;5095328;28;20660;-77
2023/04/01 01:02:24;;;;;;;2.20;2.10;;;8.90;99.90;;;;;;5095206;28;20642;-77
2023/04/01 01:04:51;;;;;;;2.63;2.43;;;9.00;99.90;;;;;;5095289;28;20239;-77
2023/04/01 01:07:28;;;;;;;2.13;2.03;;;9.00;99.90;;;;;;5095123;28;20185;-78
2023/04/01 01:10:15;;;;;;;2.40;2.20;;;9.00;99.90;;;;;;5095083;28;20169;-78
2023/04/01 01:13:04;;;;;;;2.43;2.33;;;8.90;99.90;;;;;;5094582;28;20630;-78
2023/04/01 01:15:37;;;;;;;2.13;2.03;;;8.80;99.90;;;;;;5094805;28;20167;-76
2023/04/01 01:18:15;;;;;;;2.30;2.20;;;8.90;99.90;;;;;;5094741;28;20171;-77
2023/04/01 01:21:11;;;;;;;2.57;2.37;;;8.80;99.90;;;;;;5094937;28;20641;-78
2023/04/01 01:24:12;;;;;;;2.30;2.20;;;8.80;99.90;;;;;;5094956;28;20176;-77
2023/04/01 01:27:02;;;;;;;2.47;2.30;;;8.70;99.90;;;;;;5094880;28;20529;-77
2023/04/01 01:30:01;;;;;;;2.53;2.33;;;8.60;99.90;;;;;;5094756;28;20245;-78
2023/04/01 01:32:45;;;;;;;2.27;2.13;;;8.70;99.90;;;;;;5094788;28;20170;-78
2023/04/01 01:35:26;;;;;;;2.87;2.17;;;8.60;99.90;;;;;;5094809;28;20159;-77
2023/04/01 01:37:58;;;;;;;2.30;2.20;;;8.70;99.90;;;;;;5094593;28;20180;-78
2023/04/01 01:40:26;;;;;;;2.67;2.57;;;8.70;99.90;;;;;;5094445;28;20182;-78
2023/04/01 01:42:58;;;;;;;2.43;2.20;;;8.70;99.90;;;;;;5094333;28;20201;-77
2023/04/01 01:45:26;;;;;;;2.07;1.97;;;8.70;99.90;;;;;;5094387;28;20637;-77
2023/04/01 01:47:54;;;;;;;3.20;2.30;;;8.70;99.90;;;;;;5094134;28;20225;-78
2023/04/01 01:50:21;;;;;;;2.40;2.20;;;8.70;99.90;;;;;;5094196;28;20625;-78
2023/04/01 01:52:47;;;;;;;2.23;2.13;;;8.70;99.90;;;;;;5094155;28;20177;-78
2023/04/01 01:55:25;;;;;;;2.10;2.00;;;8.70;99.90;;;;;;5094084;28;20534;-77
2023/04/01 01:57:51;;;;;;;2.57;2.30;;;8.70;99.90;;;;;;5093987;28;20174;-79
2023/04/01 02:00:18;;;;;;;2.30;2.10;;;8.70;99.90;;;;;;5094195;28;20178;-77
2023/04/01 02:02:46;;;;;;;2.53;1.93;;;8.80;99.90;;;;;;5093877;28;20182;-76
2023/04/01 02:05:18;;;;;;;2.60;1.80;;;8.80;99.90;;;;;;5094167;28;20232;-79
2023/04/01 02:07:49;;;;;;;2.47;2.27;;;8.80;99.90;;;;;;5094608;28;20208;-79
2023/04/01 02:10:15;;;;;;;2.50;2.00;;;8.70;99.90;;;;;;5094582;28;20620;-78
2023/04/01 02:12:45;;;;;;;2.10;2.00;;;8.70;99.90;;;;;;5093911;28;20172;-77
2023/04/01 02:15:14;;;;;;;2.40;2.30;;;8.70;99.90;;;;;;5094272;28;20186;-78
2023/04/01 02:17:44;;;;;;;1.90;1.80;;;8.70;99.90;;;;;;5093979;28;20518;-78
2023/04/01 02:20:14;;;;;;;2.37;2.13;;;8.70;99.90;;;;;;5093724;28;20167;-78
2023/04/01 02:22:47;;;;;;;2.10;2.00;;;8.70;99.90;;;;;;5094006;28;20178;-78
2023/04/01 02:25:17;;;;;;;2.03;1.93;;;8.80;99.90;;;;;;5093377;28;20220;-77
2023/04/01 02:27:45;;;;;;;2.17;2.07;;;8.90;99.90;;;;;;5093942;28;20190;-77
2023/04/01 02:30:13;;;;;;;1.97;1.87;;;8.90;99.90;;;;;;5093716;28;20217;-77
2023/04/01 02:32:39;;;;;;;1.70;1.70;;;9.00;99.90;;;;;;5093615;28;20172;-77
2023/04/01 02:35:11;;;;;;;2.00;1.90;;;8.90;99.90;;;;;;5093382;28;20259;-78
2023/04/01 02:37:41;;;;;;;2.00;1.90;;;8.90;99.90;;;;;;5075170;28;20181;-78
2023/04/01 02:40:09;;;;;;;2.10;1.83;;;8.90;99.90;;;;;;5093341;28;20169;-77
2023/04/01 02:42:35;;;;;;;1.73;1.63;;;8.90;99.90;;;;;;5093307;28;20170;-78
2023/04/01 02:45:01;;;;;;;2.07;1.90;;;8.80;99.90;;;;;;5075025;28;20234;-79
2023/04/01 02:47:27;;;;;;;1.80;1.80;;;8.70;99.90;;;;;;5093287;28;20233;-77
2023/04/01 02:49:58;;;;;;;2.00;1.90;;;8.80;99.90;;;;;;5093438;28;20564;-78
2023/04/01 02:52:29;;;;;;;2.10;1.50;;;8.80;99.90;;;;;;5093523;28;20241;-78
2023/04/01 02:54:55;;;;;;;1.90;1.80;;;8.80;99.90;;;;;;5093501;28;20279;-78
2023/04/01 02:57:21;;;;;;;1.90;1.80;;;8.80;99.90;;;;;;5093246;28;20178;-79
2023/04/01 02:59:47;;;;;;;2.90;1.80;;;8.90;99.90;;;;;;5093245;28;20215;-79
2023/04/01 03:02:13;;;;;;;1.90;1.80;;;8.90;99.90;;;;;;5093249;28;20250;-77
2023/04/01 03:04:39;;;;;;;2.00;1.90;;;9.00;99.90;;;;;;5093325;28;20206;-77
2023/04/01 03:07:05;;;;;;;1.70;1.67;;;8.90;99.90;;;;;;5093045;28;20786;-76
2023/04/01 03:09:31;;;;;;;2.27;2.17;;;8.80;99.90;;;;;;5092806;28;20580;-77
2023/04/01 03:11:56;;;;;;;2.00;1.90;;;8.90;99.90;;;;;;5074540;28;20209;-78
2023/04/01 03:14:22;;;;;;;1.53;1.53;;;8.70;99.90;;;;;;5074467;28;20212;-78
2023/04/01 03:16:48;;;;;;;2.20;2.10;;;8.70;99.90;;;;;;5092714;28;20540;-77
2023/04/01 03:19:14;;;;;;;1.73;1.63;;;8.80;99.90;;;;;;5074594;28;20287;-77
2023/04/01 03:21:40;;;;;;;2.10;2.00;;;8.80;99.90;;;;;;5092587;28;20261;-77
2023/04/01 03:24:06;;;;;;;1.83;1.73;;;8.80;99.90;;;;;;5092624;28;20655;-80
2023/04/01 03:26:32;;;;;;;1.67;1.67;;;8.80;99.90;;;;;;5092724;28;20649;-76
2023/04/01 03:28:57;;;;;;;2.20;2.10;;;8.80;99.90;;;;;;5092686;28;20204;-78
2023/04/01 03:31:24;;;;;;;2.20;1.93;;;8.80;99.90;;;;;;5092849;28;20259;-76
2023/04/01 03:33:50;;;;;;;1.63;1.63;;;8.80;99.90;;;;;;5092693;28;20175;-78
2023/04/01 03:36:16;;;;;;;1.80;1.70;;;8.90;99.90;;;;;;5091940;28;20311;-78
2023/04/01 03:38:42;;;;;;;1.83;1.73;;;8.80;99.90;;;;;;5092357;28;20186;-78
2023/04/01 03:41:14;;;;;;;2.07;1.97;;;8.70;99.90;;;;;;5092376;28;20170;-77
2023/04/01 03:43:40;;;;;;;1.40;1.40;;;8.80;99.90;;;;;;5092323;28;20178;-78
2023/04/01 03:46:06;;;;;;;1.87;1.83;;;8.90;99.90;;;;;;5091974;28;20241;-78
2023/04/01 03:48:31;;;;;;;1.90;1.80;;;8.90;99.90;;;;;;5092303;28;20519;-77
2023/04/01 03:50:57;;;;;;;2.13;2.03;;;9.00;99.90;;;;;;5092456;28;20203;-78
2023/04/01 03:53:23;;;;;;;1.90;1.80;;;9.00;99.90;;;;;;5092218;28;20178;-77
2023/04/01 03:55:51;;;;;;;2.20;2.10;;;9.00;99.90;;;;;;5092386;28;20270;-78
2023/04/01 03:58:16;;;;;;;2.00;1.90;;;9.00;99.90;;;;;;5092371;28;20227;-77
2023/04/01 04:00:42;;;;;;;3.27;3.07;;;9.00;99.90;;;;;;5092255;28;20277;-77
2023/04/01 04:03:08;;;;;;;6.47;3.30;;;9.00;99.90;;;;;;5092227;28;20634;-77
2023/04/01 04:05:34;;;;;;;2.97;2.83;;;9.00;99.90;;;;;;5092076;28;20220;-76
2023/04/01 04:08:00;;;;;;;3.77;3.40;;;9.00;99.90;;;;;;5092080;28;20200;-77
2023/04/01 04:10:26;;;;;;;3.63;3.40;;;9.00;99.90;;;;;;5091941;28;20205;-77
2023/04/01 04:12:52;;;;;;;4.03;3.67;;;8.90;99.90;;;;;;5073756;28;20178;-80
2023/04/01 04:15:18;;;;;;;4.57;3.93;;;8.80;99.90;;;;;;5092091;28;20186;-78
2023/04/01 04:17:45;;;;;;;4.07;3.77;;;8.80;99.90;;;;;;5091854;28;20171;-76
2023/04/01 04:20:11;;;;;;;4.47;4.07;;;8.90;99.90;;;;;;5092006;28;20191;-79
2023/04/01 04:22:36;;;;;;;5.27;4.27;;;8.90;99.90;;;;;;5092229;28;20644;-77
2023/04/01 04:25:02;;;;;;;5.20;3.90;;;8.80;99.90;;;;;;5092409;28;20219;-78
2023/04/01 04:27:28;;;;;;;3.97;3.67;;;8.80;99.90;;;;;;5091795;28;20260;-77
2023/04/01 04:29:54;;;;;;;4.30;3.47;;;8.70;99.90;;;;;;5091772;28;20183;-76
2023/04/01 04:32:20;;;;;;;4.20;3.80;;;8.70;99.90;;;;;;5073595;28;20184;-78
2023/04/01 04:34:45;;;;;;;4.10;3.80;;;8.70;99.90;;;;;;5091745;28;20176;-78
2023/04/01 04:37:11;;;;;;;3.90;3.70;;;8.60;99.90;;;;;;5091731;28;20178;-77
2023/04/01 04:39:37;;;;;;;4.03;3.67;;;8.60;99.90;;;;;;5091808;28;20947;-77
2023/04/01 04:42:03;;;;;;;3.77;3.57;;;8.50;99.90;;;;;;5091638;28;20184;-78
2023/04/01 04:44:28;;;;;;;4.17;3.87;;;8.60;99.90;;;;;;5091631;28;20176;-79
2023/04/01 04:46:54;;;;;;;5.37;3.70;;;8.50;99.90;;;;;;5091588;28;20782;-79
2023/04/01 04:49:20;;;;;;;3.83;3.53;;;8.50;99.90;;;;;;5095071;28;20174;-78
2023/04/01 04:51:46;;;;;;;4.70;4.30;;;8.40;99.90;;;;;;5095398;28;20175;-78
2023/04/01 04:54:12;;;;;;;3.70;3.50;;;8.50;99.90;;;;;;5095409;28;20658;-76
2023/04/01 04:56:37;;;;;;;4.10;3.80;;;8.50;99.90;;;;;;5095534;28;20280;-78
2023/04/01 04:59:03;;;;;;;3.47;3.27;;;8.50;99.90;;;;;;5077080;28;20519;-78
2023/04/01 05:01:29;;;;;;;3.50;3.30;;;8.50;99.90;;;;;;5095188;28;20174;-79
2023/04/01 05:03:55;;;;;;;2.87;2.70;;;8.50;99.90;;;;;;5095177;28;20220;-77
2023/04/01 05:06:20;;;;;;;2.50;2.40;;;8.50;99.90;;;;;;5094895;28;20204;-77
2023/04/01 05:08:46;;;;;;;3.63;2.70;;;8.50;99.90;;;;;;5095127;28;20173;-77
2023/04/01 05:11:18;;;;;;;3.07;2.80;;;8.50;99.90;;;;;;5095197;28;20543;-77
2023/04/01 05:13:45;;;;;;;2.70;2.60;;;8.50;99.90;;;;;;5095202;28;20174;-77
2023/04/01 05:16:20;;;;;;;2.67;2.57;;;8.50;99.90;;;;;;5094943;28;20174;-77
2023/04/01 05:18:47;;;;;;;2.10;2.00;;;8.50;99.90;;;;;;5091703;28;20181;-77
2023/04/01 05:21:14;;;;;;;3.40;2.20;;;8.50;99.90;;;;;;5093589;28;20179;-77
2023/04/01 05:23:41;;;;;;;2.50;2.40;;;8.60;99.90;;;;;;5094599;28;20189;-77
2023/04/01 05:26:09;;;;;;;3.73;2.50;;;8.50;99.90;;;;;;5075737;28;20205;-79
2023/04/01 05:28:35;;;;;;;2.63;2.43;;;8.70;99.90;;;;;;5093856;28;20220;-77
2023/04/01 05:31:02;;;;;;;2.80;2.60;;;8.70;99.90;;;;;;5094168;28;20624;-79
2023/04/01 05:33:29;;;;;;;2.70;2.50;;;8.80;99.90;;;;;;5094429;28;20174;-79
2023/04/01 05:35:55;;;;;;;2.70;2.50;;;8.80;99.90;;;;;;5093415;28;20242;-78
2023/04/01 05:38:21;;;;;;;2.53;2.43;;;8.80;99.90;;;;;;5094091;28;20185;-78
2023/04/01 05:40:47;;;;;;;2.40;2.30;;;8.90;99.90;;;;;;5093410;28;20177;-78
2023/04/01 05:43:13;;;;;;;2.47;2.37;;;8.90;99.90;;;;;;5093855;28;20246;-78
2023/04/01 05:45:39;;;;;;;2.60;2.50;;;8.90;99.90;;;;;;5093488;28;20415;-78
2023/04/01 05:48:05;;;;;;;3.43;2.50;;;8.90;99.90;;;;;;5093659;28;20182;-77
2023/04/01 05:50:31;;;;;;;4.50;2.53;;;8.90;99.90;;;;;;5093594;28;20206;-77
2023/04/01 05:52:56;;;;;;;2.33;2.23;;;8.90;99.90;;;;;;5092801;28;20265;-77
2023/04/01 05:55:22;;;;;;;2.37;2.27;;;8.80;99.90;;;;;;5094017;28;20169;-76
2023/04/01 05:57:49;;;;;;;2.63;2.40;;;8.90;99.90;;;;;;5093461;28;20224;-79
2023/04/01 06:00:16;;;;;;;2.40;2.30;;;8.90;99.90;;;;;;5092614;28;20173;-78
2023/04/01 06:02:42;;;;;;;2.23;2.10;;;9.00;99.90;;;;;;5093299;28;20181;-77
2023/04/01 06:05:13;;;;;;;2.47;2.37;;;9.10;99.90;;;;;;5091096;28;20206;-78
2023/04/01 06:07:39;;;;;;;2.43;2.33;;;9.10;99.90;;;;;;5093156;28;20188;-77
2023/04/01 06:10:20;;;;;;;2.20;2.10;;;9.20;99.90;;;;;;5093285;28;20260;-77
2023/04/01 06:12:56;;;;;;;2.20;2.10;;;9.30;99.90;;;;;;5092983;28;20174;-77
2023/04/01 06:15:32;;;;;;;2.47;2.27;;;9.30;99.90;;;;;;5092928;28;20177;-78
2023/04/01 06:18:27;;;;;;;2.03;1.93;;;9.30;99.90;;;;;;5093108;28;20201;-77
2023/04/01 06:21:21;;;;;;;2.13;2.03;;;9.40;99.90;;;;;;5070974;28;20193;-79
2023/04/01 06:24:01;;;;;;;2.80;2.60;;;9.20;99.90;;;;;;5093309;28;20158;-77
2023/04/01 06:27:08;;;;;;;3.47;2.10;;;9.20;99.90;;;;;;5093405;28;20202;-77
2023/04/01 06:29:52;;;;;;;2.20;2.10;;;9.20;99.90;;;;;;4990820;28;20534;-78
2023/04/01 06:32:18;;;;;;;2.10;2.00;;;9.30;99.90;;;;;;5083490;28;20269;-77
2023/04/01 06:35:02;;;;;;;2.00;1.90;;;9.30;99.90;;;;;;5093254;28;20262;-79
2023/04/01 06:37:52;;;;;;;1.90;1.80;;;9.40;99.90;;;;;;5093575;28;20162;-79
2023/04/01 06:40:39;;;;;;;1.90;1.80;;;9.40;99.90;;;;;;5096072;28;20186;-78
2023/04/01 06:43:13;;;;;;;5.93;2.40;;;9.50;99.90;;;;;;5096851;28;20170;-78
2023/04/01 06:46:06;;;;;;;2.30;2.10;;;9.60;99.90;;;;;;5103790;28;20204;-78
2023/04/01 06:48:40;;;;;;;2.53;2.00;;;9.70;99.90;;;;;;5102377;28;20197;-77
2023/04/01 06:51:15;;;;;;;1.77;1.67;;;9.80;99.90;;;;;;5094777;28;20175;-78
2023/04/01 06:54:02;;;;;;;2.00;1.83;;;9.80;99.90;;;;;;5075458;28;20499;-76
2023/04/01 06:56:29;;;;;;;1.87;1.77;;;9.90;99.90;;;;;;5093351;28;20584;-79
2023/04/01 06:59:04;;;;;;;1.80;1.70;;;10.00;99.90;;;;;;5093367;28;20180;-81
2023/04/01 07:01:39;;;;;;;2.43;2.10;;;10.00;99.90;;;;;;5093310;28;20208;-77
2023/04/01 07:04:09;;;;;;;2.90;2.00;;;10.00;99.90;;;;;;5092913;28;20161;-76
2023/04/01 07:06:40;;;;;;;2.10;2.00;;;10.00;99.90;;;;;;5093002;28;20213;-80
2023/04/01 07:09:16;;;;;;;2.33;2.10;;;10.10;99.90;;;;;;5092876;28;20182;-77
2023/04/01 07:11:42;;;;;;;2.17;1.97;;;10.10;99.90;;;;;;5091885;28;20318;-77
2023/04/01 07:14:22;;;;;;;2.30;2.10;;;10.20;99.90;;;;;;5092352;28;20190;-77
2023/04/01 07:16:59;;;;;;;2.27;2.17;;;10.30;99.90;;;;;;5092265;28;20183;-77
2023/04/01 07:19:56;;;;;;;3.60;2.20;;;10.50;99.90;;;;;;5090774;28;20695;-77
2023/04/01 07:22:35;;;;;;;2.30;2.10;;;10.70;99.90;;;;;;5092669;28;20230;-78
2023/04/01 07:25:30;;;;;;;2.30;2.20;;;10.90;99.90;;;;;;5088418;28;20244;-79
2023/04/01 07:28:05;;;;;;;2.23;2.13;;;11.00;99.90;;;;;;5091070;28;20182;-77
2023/04/01 07:30:42;;;;;;;2.20;2.10;;;11.20;99.90;;;;;;5092477;28;20172;-78
2023/04/01 07:33:29;;;;;;;2.90;2.70;;;11.40;99.90;;;;;;5092240;28;20631;-77
2023/04/01 07:36:13;;;;;;;2.33;2.23;;;11.30;99.90;;;;;;5092678;28;20244;-77
2023/04/01 07:39:03;;;;;;;3.10;1.87;;;11.30;99.90;;;;;;5092604;28;20175;-78
2023/04/01 07:42:07;;;;;;;1.83;1.73;;;11.30;99.90;;;;;;5074106;28;20584;-77
2023/04/01 07:44:44;;;;;;;2.53;2.03;;;11.20;99.90;;;;;;5091782;28;20166;-76
2023/04/01 07:47:18;;;;;;;2.37;2.20;;;11.20;99.90;;;;;;5091807;28;20229;-77
2023/04/01 07:50:09;;;;;;;2.10;2.00;;;11.30;99.90;;;;;;5092097;28;20161;-78
2023/04/01 07:52:39;;;;;;;2.77;2.57;;;11.40;99.90;;;;;;5091825;28;20631;-77
2023/04/01 07:55:26;;;;;;;2.23;2.13;;;11.70;99.90;;;;;;5073179;28;20261;-78
2023/04/01 07:58:11;;;;;;;2.80;2.60;;;11.80;99.90;;;;;;5073775;28;20193;-78
2023/04/01 08:00:49;;;;;;;3.10;2.77;;;12.10;99.90;;;;;;5092374;28;20224;-78
2023/04/01 08:03:33;;;;;;;6.20;4.07;;;12.30;99.90;;;;;;5092200;28;20215;-78
2023/04/01 08:06:11;;;;;;;4.00;3.60;;;12.60;99.90;;;;;;5072972;28;20679;-77
2023/04/01 08:08:40;;;;;;;5.37;3.33;;;12.70;99.90;;;;;;5092082;28;20192;-78
2023/04/01 08:11:39;;;;;;;2.93;2.70;;;12.90;99.90;;;;;;5092582;28;20170;-77
2023/04/01 08:14:28;;;;;;;2.90;2.70;;;12.90;99.90;;;;;;5092315;28;20158;-78
2023/04/01 08:17:05;;;;;;;3.10;2.90;;;13.10;99.90;;;;;;5092064;28;20617;-77
2023/04/01 08:19:51;;;;;;;3.30;3.10;;;13.30;99.90;;;;;;5092770;28;20162;-77
2023/04/01 08:22:44;;;;;;;4.40;3.40;;;13.50;99.90;;;;;;5093068;28;20164;-77
2023/04/01 08:25:22;;;;;;;7.47;3.53;;;13.70;99.90;;;;;;5095413;28;20194;-79
2023/04/01 08:28:10;;;;;;;3.67;3.33;;;13.90;99.90;;;;;;5095723;28;20593;-78
2023/04/01 08:30:41;;;;;;;3.10;2.90;;;14.10;99.90;;;;;;5096177;28;20159;-79
2023/04/01 08:33:17;;;;;;;3.80;3.03;;;14.30;99.90;;;;;;5096128;28;20171;-79
2023/04/01 08:36:16;;;;;;;2.70;2.60;;;14.40;99.90;;;;;;5095922;28;20170;-77
2023/04/01 08:38:56;;;;;;;3.07;2.80;;;14.70;99.90;;;;;;5026762;28;20541;-78
2023/04/01 08:41:37;;;;;;;3.40;3.10;;;14.80;99.90;;;;;;5096260;28;20208;-77
2023/04/01 08:44:30;;;;;;;2.60;2.50;;;14.80;99.90;;;;;;5090532;28;20179;-77
2023/04/01 08:47:09;;;;;;;2.70;2.50;;;14.80;99.90;;;;;;5093609;28;20307;-79
2023/04/01 08:50:08;;;;;;;2.33;2.23;;;14.90;99.90;;;;;;5095177;28;20166;-79
2023/04/01 08:52:41;;;;;;;2.33;2.17;;;14.90;99.90;;;;;;5096553;28;20170;-76
2023/04/01 08:55:34;;;;;;;2.40;2.20;;;14.90;99.70;;;;;;5095367;28;20163;-78
2023/04/01 08:58:27;;;;;;;2.30;2.20;;;15.00;99.90;;;;;;5095618;28;20220;-77
2023/04/01 09:01:01;;;;;;;2.50;2.30;;;15.10;99.90;;;;;;5095350;28;20241;-77
2023/04/01 09:03:49;;;;;;;2.20;2.10;;;15.10;99.70;;;;;;5095738;28;20159;-77
2023/04/01 09:06:47;;;;;;;2.67;2.47;;;15.10;99.90;;;;;;5094833;28;20266;-78
2023/04/01 09:09:48;;;;;;;2.10;2.00;;;15.20;99.90;;;;;;5077764;28;20173;-79
2023/04/01 09:12:49;;;;;;;2.30;2.10;;;15.40;99.80;;;;;;5067648;28;20277;-78
2023/04/01 09:15:24;;;;;;;2.13;2.03;;;15.60;99.50;;;;;;5077063;28;20194;-77
2023/04/01 09:18:05;;;;;;;1.90;1.80;;;15.60;99.50;;;;;;5095677;28;20156;-78
2023/04/01 09:20:57;;;;;;;3.03;2.87;;;15.60;99.50;;;;;;5095862;28;20726;-77
2023/04/01 09:23:45;;;;;;;1.80;1.70;;;15.70;99.40;;;;;;5098181;28;20155;-76
2023/04/01 09:26:27;;;;;;;2.03;1.90;;;15.70;99.00;;;;;;5096122;28;20738;-78
2023/04/01 09:29:14;;;;;;;2.00;1.90;;;15.70;98.80;;;;;;5096756;28;20193;-78
2023/04/01 09:31:49;;;;;;;1.90;1.80;;;15.80;98.90;;;;;;5095259;28;20252;-77
2023/04/01 09:34:51;;;;;;;2.20;2.00;;;16.10;98.90;;;;;;5094341;28;20173;-78
2023/04/01 09:37:32;;;;;;;2.20;2.10;;;16.30;98.70;;;;;;5094557;28;20163;-78
2023/04/01 09:40:14;;;;;;;2.10;2.00;;;16.30;98.50;;;;;;5094726;28;20676;-78
2023/04/01 09:42:49;;;;;;;2.27;2.17;;;16.30;98.70;;;;;;5094307;28;20174;-77
2023/04/01 09:45:26;;;;;;;2.10;2.00;;;16.60;98.80;;;;;;5083889;28;20205;-77
2023/04/01 09:48:14;;;;;;;2.57;1.73;;;16.60;98.00;;;;;;5089475;27;20229;-76
2023/04/01 09:51:20;;;;;;;1.80;1.70;;;16.50;97.80;;;;;;5092263;28;20225;-76
2023/04/01 09:53:52;;;;;;;1.83;1.73;;;16.60;97.60;;;;;;5094068;28;20254;-79
2023/04/01 09:56:55;;;;;;;1.50;1.50;;;16.60;97.10;;;;;;5091451;28;20174;-77
2023/04/01 09:59:47;;;;;;;1.13;1.13;;;16.50;97.10;;;;;;5091855;28;20176;-78
2023/04/01 10:02:32;;;;;;;1.27;1.27;;;16.60;97.10;;;;;;5094914;28;20177;-77
2023/04/01 10:05:41;;;;;;;1.57;1.57;;;16.60;97.10;;;;;;5093174;28;20214;-79
2023/04/01 10:08:28;;;;;;;2.10;2.00;;;16.60;96.90;;;;;;5092373;28;20189;-77
2023/04/01 10:11:31;;;;;;;1.13;1.13;;;16.60;97.20;;;;;;5094208;28;20227;-78
2023/04/01 10:14:27;;;;;;;1.53;1.43;;;16.60;96.40;;;;;;5095166;28;20176;-76
2023/04/01 10:16:56;;;;;;;1.20;1.20;;;16.60;96.20;;;;;;5093817;28;20162;-78
2023/04/01 10:19:40;;;;;;;1.30;1.30;;;16.50;96.10;;;;;;5091373;28;20185;-77
2023/04/01 10:22:45;;;;;;;1.17;1.17;;;16.50;95.80;;;;;;5093258;28;20166;-76
2023/04/01 10:25:36;;;;;;;0.67;0.67;;;16.60;95.20;;;;;;5092343;28;20190;-77
2023/04/01 10:28:04;;;;;;;0.40;0.40;;;16.50;93.20;;;;;;5083131;28;20189;-76
2023/04/01 10:30:58;;;;;;;0.30;0.30;;;16.40;91.20;;;;;;5055065;28;20177;-78
2023/04/01 10:33:42;;;;;;;0.27;0.27;;;16.30;91.50;;;;;;5056618;28;20557;-77
2023/04/01 10:36:44;;;;;;;0.40;0.40;;;16.30;90.90;;;;;;5093142;28;20525;-77
2023/04/01 10:39:46;;;;;;;0.40;0.40;;;16.40;91.10;;;;;;5092815;28;20168;-78
2023/04/01 10:42:50;;;;;;;0.77;0.77;;;16.60;90.10;;;;;;5092446;28;20181;-77
2023/04/01 10:45:45;;;;;;;1.00;1.00;;;16.30;90.80;;;;;;5074213;28;20697;-78
2023/04/01 10:48:36;;;;;;;0.77;0.77;;;16.10;90.80;;;;;;5070544;28;20221;-77
2023/04/01 10:51:09;;;;;;;0.90;0.90;;;15.90;90.60;;;;;;5112454;28;20182;-79
2023/04/01 10:53:59;;;;;;;0.50;0.50;;;16.00;90.30;;;;;;5110791;28;20184;-77
2023/04/01 10:56:46;;;;;;;0.50;0.50;;;16.20;90.10;;;;;;5110725;28;20181;-77
2023/04/01 10:59:59;;;;;;;0.20;0.20;;;16.40;88.30;;;;;;5110769;28;20188;-79
2023/04/01 11:02:40;;;;;;;0.30;0.30;;;16.50;86.10;;;;;;5102110;28;20323;-77
2023/04/01 11:05:43;;;;;;;0.20;0.20;;;16.40;85.00;;;;;;5112330;28;20342;-79
2023/04/01 11:08:33;;;;;;;0.20;0.20;;;16.40;86.00;;;;;;5112377;28;20168;-75
2023/04/01 11:11:26;;;;;;;0.17;0.17;;;16.50;84.70;;;;;;5112662;28;20644;-77
2023/04/01 11:14:29;;;;;;;0.30;0.30;;;16.30;86.00;;;;;;5112749;28;20192;-76
2023/04/01 11:17:12;;;;;;;0.23;0.23;;;16.10;86.50;;;;;;5112363;28;20206;-77
2023/04/01 11:19:50;;;;;;;0.33;0.33;;;16.20;87.10;;;;;;5113147;28;20166;-77
2023/04/01 11:22:22;;;;;;;0.13;0.13;;;16.20;85.40;;;;;;5112288;28;20218;-78
2023/04/01 11:25:15;;;;;;;0.40;0.40;;;16.10;84.60;;;;;;5096527;28;20194;-76
2023/04/01 11:27:44;;;;;;;0.50;0.50;;;16.10;85.50;;;;;;5108144;28;20246;-76
2023/04/01 11:30:22;;;;;;;0.50;0.50;;;16.00;86.50;;;;;;5111920;28;20174;-78
2023/04/01 11:32:54;;;;;;;0.47;0.47;;;16.10;86.20;;;;;;5112144;28;20155;-77
2023/04/01 11:35:47;;;;;;;0.47;0.47;;;16.30;85.40;;;;;;5112558;28;20177;-77
2023/04/01 11:38:50;;;;;;;0.67;0.60;;;16.20;84.50;;;;;;5091996;28;20182;-78
2023/04/01 11:41:37;;;;;;;0.37;0.37;;;16.10;85.30;;;;;;5092984;28;20541;-79
2023/04/01 11:44:16;;;;;;;0.30;0.30;;;16.30;84.70;;;;;;5111710;28;20178;-77
2023/04/01 11:47:00;;;;;;;0.50;0.40;;;16.50;84.80;;;;;;5106229;28;20288;-77
2023/04/01 11:49:53;;;;;;;0.23;0.23;;;16.70;82.70;;;;;;5053469;28;20232;-77
2023/04/01 11:52:34;;;;;;;0.20;0.20;;;16.90;83.20;;;;;;5071350;28;20262;-75
2023/04/01 11:55:04;;;;;;;0.40;0.40;;;17.10;82.80;;;;;;5072144;28;20234;-77
2023/04/01 12:29:35;;;;;;;31.17;14.17;;;16.60;80.30;;;;;;5068393;28;20555;-77
2023/04/01 12:32:19;;;;;;;6.93;3.60;;;16.70;80.90;;;;;;5067337;28;20176;-78
2023/04/01 12:35:06;;;;;;;2.70;1.80;;;16.60;79.60;;;;;;5067848;28;20175;-79
2023/04/01 12:37:53;;;;;;;1.20;1.10;;;16.60;79.60;;;;;;5067615;28;20183;-79
2023/04/01 12:40:30;;;;;;;0.50;0.50;;;16.80;79.10;;;;;;5067278;28;20171;-81
2023/04/01 12:43:45;;;;;;;0.40;0.40;;;16.70;79.50;;;;;;5068120;28;20186;-78
2023/04/01 12:46:36;;;;;;;0.70;0.70;;;16.70;78.80;;;;;;5063734;28;20721;-78
2023/04/01 12:49:38;;;;;;;2.80;2.60;;;16.90;78.10;;;;;;5058165;28;20702;-77
2023/04/01 12:52:09;;;;;;;1.87;1.77;;;17.00;78.20;;;;;;5067783;28;20209;-78
2023/04/01 12:54:44;;;;;;;1.00;1.00;;;17.10;79.00;;;;;;5068259;28;20159;-77
2023/04/01 12:57:31;;;;;;;2.10;1.70;;;17.20;77.80;;;;;;5067273;28;20163;-77
2023/04/01 13:00:34;;;;;;;0.97;0.97;;;17.30;76.60;;;;;;5068650;28;20172;-79
2023/04/01 13:03:22;;;;;;;0.60;0.60;;;17.10;77.00;;;;;;5068656;28;20175;-77
2023/04/01 13:06:14;;;;;;;0.50;0.50;;;17.20;76.80;;;;;;5068506;28;20591;-79
2023/04/01 13:08:56;;;;;;;0.50;0.50;;;17.00;77.30;;;;;;5068539;28;20282;-80
2023/04/01 13:11:36;;;;;;;0.40;0.40;;;17.00;76.80;;;;;;5068084;28;20779;-79
2023/04/01 13:14:45;;;;;;;3.10;2.90;;;16.70;75.80;;;;;;5067475;28;20258;-79
2023/04/01 13:17:22;;;;;;;6.97;5.97;;;16.60;76.50;;;;;;5057986;28;20183;-78
2023/04/01 13:20:09;;;;;;;12.07;10.97;;;16.70;75.70;;;;;;5068122;28;20243;-79
2023/04/01 13:22:54;;;;;;;10.77;9.77;;;16.60;75.80;;;;;;5067800;28;20702;-80
2023/04/01 13:26:02;;;;;;;10.40;8.90;;;16.80;75.70;;;;;;5067983;28;20160;-79
2023/04/01 13:28:38;;;;;;;2.50;2.40;;;16.90;74.80;;;;;;5067023;28;20296;-77
2023/04/01 13:31:07;;;;;;;4.00;3.60;;;17.00;74.60;;;;;;5066142;28;20245;-76
2023/04/01 13:33:50;;;;;;;5.43;4.83;;;17.00;74.50;;;;;;5066913;28;20549;-78
2023/04/01 13:36:27;;;;;;;4.03;3.17;;;17.00;74.20;;;;;;5067499;28;20167;-78
2023/04/01 13:39:24;;;;;;;3.00;2.80;;;17.00;73.90;;;;;;5063151;28;20168;-78
2023/04/01 13:42:02;;;;;;;3.67;3.37;;;17.00;72.50;;;;;;5044611;28;20175;-80
2023/04/01 13:44:37;;;;;;;9.20;5.33;;;16.90;72.80;;;;;;5046268;28;20161;-78
2023/04/01 13:47:24;;;;;;;3.13;2.90;;;16.80;72.50;;;;;;5043131;28;20508;-76
2023/04/01 13:50:17;;;;;;;1.80;1.70;;;16.70;72.90;;;;;;5043667;28;20784;-79
2023/04/01 13:53:06;;;;;;;0.70;0.70;;;16.90;72.70;;;;;;5043172;28;20263;-79
2023/04/01 13:56:00;;;;;;;0.57;0.57;;;17.10;71.20;;;;;;5040313;28;20722;-78
2023/04/01 13:58:45;;;;;;;0.60;0.60;;;17.10;73.90;;;;;;5043098;28;20196;-78
2023/04/01 14:01:11;;;;;;;0.80;0.80;;;17.30;72.00;;;;;;5042875;28;20961;-78
2023/04/01 14:04:12;;;;;;;0.50;0.50;;;17.40;72.70;;;;;;5041937;28;20263;-82
2023/04/01 14:06:53;;;;;;;2.10;1.70;;;17.50;72.30;;;;;;5044319;28;20246;-80
2023/04/01 14:09:34;;;;;;;2.63;2.17;;;17.60;71.40;;;;;;5042111;28;20180;-79
2023/04/01 14:12:13;;;;;;;2.80;2.50;;;17.60;70.60;;;;;;5042241;28;20200;-80
2023/04/01 14:15:21;;;;;;;3.37;3.07;;;17.60;70.60;;;;;;5041437;28;20644;-78
2023/04/01 14:18:03;;;;;;;0.67;0.67;;;17.50;70.80;;;;;;5005584;28;20189;-79